Time;durP1;ratioP1;P1;durP2;ratioP2;P2;SDS_P1;SDS_P2;PMS_P1;PMS_P2;Temp;Humidity;BMP_temperature;BMP_pressure;BME280_temperature;BME280_humidity;BME280_pressure;Samples;Min_cycle;Max_cycle;Signal;HPM_P1;HPM_P2
2024/03/18 00:02:00;;;;;;;5.67;1.93;;;0.70;99.90;;;;;;5078470;28;20196;-71
2024/03/18 00:04:46;;;;;;;3.13;2.27;;;0.70;99.90;;;;;;5078558;28;20216;-71
2024/03/18 00:07:32;;;;;;;3.17;2.10;;;0.70;99.90;;;;;;5066249;28;20198;-71
2024/03/18 00:10:19;;;;;;;3.33;2.20;;;0.80;99.90;;;;;;5078567;28;20195;-71
2024/03/18 00:13:05;;;;;;;2.93;2.10;;;0.70;99.90;;;;;;5079657;28;20186;-71
2024/03/18 00:15:51;;;;;;;3.97;2.10;;;0.70;99.90;;;;;;5078778;28;20609;-71
2024/03/18 00:18:39;;;;;;;5.90;2.20;;;0.70;99.90;;;;;;5078201;28;20220;-71
2024/03/18 00:21:25;;;;;;;5.07;2.30;;;0.70;99.90;;;;;;5078875;28;20648;-71
2024/03/18 00:24:12;;;;;;;4.77;2.37;;;0.60;99.90;;;;;;5065662;28;20193;-71
2024/03/18 00:26:59;;;;;;;4.23;2.20;;;0.60;99.90;;;;;;5078302;28;20655;-71
2024/03/18 00:29:45;;;;;;;4.33;2.33;;;0.60;99.90;;;;;;5078811;28;20568;-71
2024/03/18 00:32:31;;;;;;;3.63;2.33;;;0.60;99.90;;;;;;5078248;28;20198;-71
2024/03/18 00:35:19;;;;;;;3.83;2.60;;;0.60;99.90;;;;;;5077017;28;20216;-71
2024/03/18 00:38:05;;;;;;;5.13;2.30;;;0.60;99.90;;;;;;5078461;28;20210;-71
2024/03/18 00:41:44;;;;;;;4.23;2.50;;;0.60;99.90;;;;;;5079144;28;20650;-72
2024/03/18 00:44:00;;;;;;;2.87;2.20;;;0.60;99.90;;;;;;5079059;28;20674;-72
2024/03/18 00:46:47;;;;;;;3.70;2.40;;;0.50;99.90;;;;;;5063907;28;20196;-71
2024/03/18 00:49:33;;;;;;;3.40;2.50;;;0.50;99.90;;;;;;5078255;28;20703;-71
2024/03/18 00:52:20;;;;;;;2.63;2.20;;;0.50;99.90;;;;;;5077540;28;20196;-71
2024/03/18 00:55:10;;;;;;;3.77;2.40;;;0.50;99.90;;;;;;5077702;28;20218;-70
2024/03/18 00:57:56;;;;;;;3.80;2.43;;;0.40;99.90;;;;;;5051958;28;20217;-72
2024/03/18 01:00:43;;;;;;;3.77;2.47;;;0.40;99.90;;;;;;5079416;28;20757;-72
2024/03/18 01:03:29;;;;;;;5.60;2.40;;;0.40;99.90;;;;;;5077993;28;20189;-71
2024/03/18 01:06:15;;;;;;;4.43;2.70;;;0.50;99.90;;;;;;5079180;28;20202;-71
2024/03/18 01:09:05;;;;;;;6.23;2.40;;;0.50;99.90;;;;;;5077336;28;20196;-71
2024/03/18 01:11:51;;;;;;;5.03;2.50;;;0.50;99.90;;;;;;5077840;28;20189;-70
2024/03/18 01:14:37;;;;;;;3.57;2.53;;;0.40;99.90;;;;;;5077166;28;20687;-70
2024/03/18 01:17:24;;;;;;;5.00;2.63;;;0.40;99.90;;;;;;5077123;28;20203;-70
2024/03/18 01:20:14;;;;;;;5.50;2.30;;;0.40;99.90;;;;;;5077687;28;20701;-70
2024/03/18 01:23:00;;;;;;;3.13;2.50;;;0.40;99.90;;;;;;5077213;28;20194;-71
2024/03/18 01:25:47;;;;;;;4.07;2.40;;;0.30;99.90;;;;;;5078306;28;20200;-71
2024/03/18 01:28:34;;;;;;;4.53;2.50;;;0.40;99.90;;;;;;5063306;28;20195;-71
2024/03/18 01:31:21;;;;;;;5.63;2.70;;;0.50;99.90;;;;;;5063478;28;20214;-71
2024/03/18 01:34:11;;;;;;;3.73;2.40;;;0.50;99.90;;;;;;5077617;28;20705;-71
2024/03/18 01:36:57;;;;;;;4.47;2.50;;;0.50;99.90;;;;;;5077514;28;20225;-71
2024/03/18 01:39:43;;;;;;;3.57;2.57;;;0.60;99.90;;;;;;5077405;28;20696;-71
2024/03/18 01:42:30;;;;;;;4.27;2.20;;;0.60;99.90;;;;;;5078762;28;20247;-71
2024/03/18 01:45:24;;;;;;;3.47;2.40;;;0.60;99.90;;;;;;5077213;28;20196;-71
2024/03/18 01:48:11;;;;;;;3.30;2.20;;;0.60;99.90;;;;;;5077366;28;20199;-71
2024/03/18 01:50:58;;;;;;;4.47;2.23;;;0.60;99.90;;;;;;5075245;28;20195;-71
2024/03/18 01:53:44;;;;;;;4.03;1.93;;;0.70;99.90;;;;;;5076561;28;20186;-71
2024/03/18 01:56:30;;;;;;;5.03;2.27;;;0.60;99.90;;;;;;5076678;28;20198;-71
2024/03/18 01:59:16;;;;;;;3.50;2.17;;;0.60;99.90;;;;;;5076128;28;20234;-70
2024/03/18 02:02:03;;;;;;;5.40;2.60;;;0.70;99.90;;;;;;5063302;28;20192;-71
2024/03/18 02:04:50;;;;;;;5.00;2.20;;;0.80;99.90;;;;;;5077606;28;20201;-70
2024/03/18 02:07:39;;;;;;;2.97;2.07;;;0.70;99.90;;;;;;5077174;28;20674;-71
2024/03/18 02:10:26;;;;;;;4.43;2.40;;;0.80;99.90;;;;;;5077583;28;20279;-71
2024/03/18 02:13:15;;;;;;;7.00;2.90;;;0.80;99.90;;;;;;5061898;28;20197;-72
2024/03/18 02:16:02;;;;;;;4.17;2.57;;;0.80;99.90;;;;;;5063614;28;20197;-71
2024/03/18 02:18:48;;;;;;;3.97;2.20;;;0.80;99.90;;;;;;5077939;28;20224;-71
2024/03/18 02:21:35;;;;;;;3.67;2.33;;;0.80;99.90;;;;;;5064618;28;20205;-71
2024/03/18 02:24:22;;;;;;;6.13;2.30;;;0.90;99.90;;;;;;5076854;28;20227;-71
2024/03/18 02:27:11;;;;;;;3.67;2.30;;;0.80;99.90;;;;;;5074859;28;20195;-71
2024/03/18 02:29:58;;;;;;;3.63;2.70;;;0.70;99.90;;;;;;5076841;28;20654;-72
2024/03/18 02:32:45;;;;;;;3.93;2.40;;;0.80;99.90;;;;;;5076871;28;20246;-71
2024/03/18 02:40:16;;;;;;;3.70;2.40;;;0.70;99.90;;;;;;5091145;28;20253;-71
2024/03/18 02:43:03;;;;;;;4.50;2.20;;;0.70;99.90;;;;;;5075985;28;20201;-71
2024/03/18 02:46:27;;;;;;;6.70;2.60;;;0.70;99.90;;;;;;5075463;28;20656;-69
2024/03/18 02:52:56;;;;;;;4.83;2.57;;;0.40;99.90;;;;;;5075824;28;20188;-71
2024/03/18 02:55:45;;;;;;;5.27;2.80;;;0.50;99.90;;;;;;5074740;28;20192;-71
2024/03/18 02:59:09;;;;;;;3.40;2.60;;;0.60;99.90;;;;;;5076078;28;20226;-71
2024/03/18 03:01:55;;;;;;;5.57;2.70;;;0.50;99.90;;;;;;5075462;28;20216;-71
2024/03/18 03:04:42;;;;;;;3.77;2.60;;;0.50;99.90;;;;;;5063369;28;20209;-71
2024/03/18 03:07:28;;;;;;;5.63;2.50;;;0.40;99.90;;;;;;5075954;28;20197;-71
2024/03/18 03:10:15;;;;;;;5.40;2.90;;;0.40;99.90;;;;;;5077495;28;20217;-71
2024/03/18 03:13:01;;;;;;;5.07;3.13;;;0.40;99.90;;;;;;5063017;28;20211;-70
2024/03/18 03:15:48;;;;;;;5.60;3.10;;;0.40;99.90;;;;;;5075909;28;20203;-71
2024/03/18 03:18:34;;;;;;;5.80;2.90;;;0.40;99.90;;;;;;5075509;28;20223;-71
2024/03/18 03:21:21;;;;;;;4.63;3.10;;;0.30;99.90;;;;;;5075722;28;20194;-71
2024/03/18 03:24:07;;;;;;;5.50;3.07;;;0.40;99.90;;;;;;5074932;28;20201;-71
2024/03/18 03:27:32;;;;;;;6.13;3.10;;;0.30;99.90;;;;;;5075692;28;20195;-71
2024/03/18 03:30:44;;;;;;;5.17;3.20;;;0.40;99.90;;;;;;5090806;28;20182;-71
2024/03/18 03:33:34;;;;;;;6.27;3.33;;;0.40;99.90;;;;;;5075546;28;20196;-71
2024/03/18 03:36:20;;;;;;;5.40;3.20;;;0.30;99.90;;;;;;5075051;28;20233;-69
2024/03/18 03:39:08;;;;;;;8.13;3.17;;;0.30;99.90;;;;;;5080278;28;20221;-69
2024/03/18 03:41:54;;;;;;;5.40;3.30;;;0.30;99.90;;;;;;5079709;28;20200;-69
2024/03/18 03:44:41;;;;;;;6.40;3.00;;;0.40;99.90;;;;;;5079616;28;20706;-69
2024/03/18 03:47:27;;;;;;;7.27;3.10;;;0.30;99.90;;;;;;5064975;28;20567;-69
2024/03/18 03:50:14;;;;;;;5.17;3.37;;;0.30;99.90;;;;;;5079407;28;20214;-70
2024/03/18 03:53:00;;;;;;;6.50;3.73;;;0.20;99.90;;;;;;5078915;28;20201;-71
2024/03/18 03:55:51;;;;;;;4.60;3.27;;;0.30;99.90;;;;;;5078693;28;20194;-69
2024/03/18 03:58:40;;;;;;;7.00;3.10;;;0.20;99.90;;;;;;5079151;28;20219;-70
2024/03/18 04:01:26;;;;;;;5.87;3.30;;;0.20;99.90;;;;;;5077531;28;20192;-70
2024/03/18 04:04:12;;;;;;;7.00;3.60;;;0.20;99.90;;;;;;5078125;28;20220;-71
2024/03/18 04:07:00;;;;;;;7.23;3.70;;;0.20;99.90;;;;;;5080450;28;20196;-70
2024/03/18 04:09:46;;;;;;;4.93;3.40;;;0.30;99.90;;;;;;5078615;28;20190;-70
2024/03/18 04:12:32;;;;;;;6.77;3.57;;;0.20;99.90;;;;;;5078673;28;20196;-71
2024/03/18 04:15:19;;;;;;;8.00;3.67;;;0.10;99.90;;;;;;5078435;28;20199;-71
2024/03/18 04:18:07;;;;;;;6.40;3.73;;;0.20;99.90;;;;;;5078940;28;20223;-71
2024/03/18 04:20:53;;;;;;;7.87;3.93;;;0.20;99.90;;;;;;5078548;28;20208;-71
2024/03/18 04:23:39;;;;;;;6.77;3.60;;;0.30;99.90;;;;;;5078489;28;20232;-71
2024/03/18 04:26:26;;;;;;;6.93;3.67;;;0.20;99.90;;;;;;5066840;28;20221;-71
2024/03/18 04:29:13;;;;;;;5.97;3.63;;;0.20;99.90;;;;;;5078871;28;20192;-70
2024/03/18 04:31:59;;;;;;;6.60;3.60;;;0.30;99.90;;;;;;5079281;28;20196;-70
2024/03/18 04:34:45;;;;;;;7.10;3.90;;;0.20;99.90;;;;;;5078692;28;20712;-70
2024/03/18 04:37:39;;;;;;;4.97;3.47;;;0.20;99.90;;;;;;5044938;28;20201;-69
2024/03/18 04:40:26;;;;;;;7.00;3.90;;;0.10;99.90;;;;;;5044746;28;20200;-71
2024/03/18 04:43:13;;;;;;;7.33;3.43;;;0.10;99.90;;;;;;5057415;28;20574;-70
2024/03/18 04:46:00;;;;;;;6.90;3.60;;;0.10;99.90;;;;;;5059533;28;20199;-71
2024/03/18 04:48:46;;;;;;;5.90;3.60;;;0.10;99.90;;;;;;5058188;28;20689;-71
2024/03/18 04:51:32;;;;;;;11.43;3.93;;;0.20;99.90;;;;;;5044252;28;20660;-71
2024/03/18 04:54:19;;;;;;;6.87;4.20;;;0.10;99.90;;;;;;5058814;28;20538;-70
2024/03/18 04:57:05;;;;;;;8.23;4.13;;;0.10;99.90;;;;;;5058900;28;20189;-70
2024/03/18 04:59:51;;;;;;;7.70;4.70;;;0.00;99.90;;;;;;5058911;28;20222;-70
2024/03/18 05:02:41;;;;;;;9.80;4.67;;;0.00;99.90;;;;;;5057236;28;20190;-70
2024/03/18 05:05:27;;;;;;;7.20;4.70;;;0.00;99.90;;;;;;5043757;28;20223;-71
2024/03/18 05:08:14;;;;;;;9.33;5.27;;;0.10;99.90;;;;;;5057688;28;20203;-70
2024/03/18 05:11:00;;;;;;;12.27;6.40;;;0.10;99.90;;;;;;5058586;28;20182;-70
2024/03/18 05:13:46;;;;;;;11.50;6.23;;;0.10;99.90;;;;;;5057496;28;20676;-70
2024/03/18 05:16:37;;;;;;;10.83;6.20;;;0.10;99.90;;;;;;5057233;28;20647;-70
2024/03/18 05:19:24;;;;;;;11.37;6.80;;;0.00;99.90;;;;;;5042972;28;20237;-70
2024/03/18 05:22:12;;;;;;;10.97;6.37;;;0.00;99.90;;;;;;5056459;28;20190;-70
2024/03/18 05:24:59;;;;;;;15.73;7.27;;;0.00;99.90;;;;;;5057191;28;20197;-71
2024/03/18 05:27:45;;;;;;;11.73;7.40;;;0.00;99.90;;;;;;5044777;28;20195;-71
2024/03/18 05:30:32;;;;;;;13.60;7.47;;;0.00;99.90;;;;;;5057052;28;20563;-69
2024/03/18 05:33:18;;;;;;;11.80;7.30;;;0.00;99.90;;;;;;5058379;28;20251;-70
2024/03/18 05:36:05;;;;;;;11.47;7.60;;;0.00;99.90;;;;;;5051316;28;20615;-72
2024/03/18 05:38:51;;;;;;;14.60;7.30;;;0.10;99.90;;;;;;5076943;28;20249;-76
2024/03/18 05:41:38;;;;;;;12.13;7.20;;;0.10;99.90;;;;;;5077264;28;20216;-77
2024/03/18 05:44:25;;;;;;;11.00;7.00;;;0.10;99.90;;;;;;5064439;28;20199;-77
2024/03/18 05:47:11;;;;;;;12.97;6.63;;;0.10;99.90;;;;;;5076672;28;20193;-76
2024/03/18 05:49:58;;;;;;;11.23;6.53;;;0.10;99.90;;;;;;5076613;28;20216;-77
2024/03/18 05:52:46;;;;;;;11.27;6.50;;;0.00;99.90;;;;;;5077827;28;20565;-76
2024/03/18 05:55:33;;;;;;;11.83;6.40;;;0.00;99.90;;;;;;5078553;28;20189;-77
2024/03/18 05:58:19;;;;;;;10.57;6.40;;;0.10;99.90;;;;;;5079051;28;20211;-76
2024/03/18 06:01:12;;;;;;;10.17;5.90;;;0.20;99.90;;;;;;5077219;28;20196;-76
2024/03/18 06:03:59;;;;;;;11.83;6.30;;;0.10;99.90;;;;;;5077176;28;20217;-77
2024/03/18 06:06:45;;;;;;;10.43;5.97;;;0.10;99.90;;;;;;5063640;28;20192;-77
2024/03/18 06:09:32;;;;;;;10.67;6.07;;;0.20;99.90;;;;;;5077043;28;20197;-78
2024/03/18 06:12:19;;;;;;;11.27;6.17;;;0.20;99.90;;;;;;5076786;28;20185;-78
2024/03/18 06:15:06;;;;;;;14.77;6.43;;;0.20;99.90;;;;;;5075555;28;20196;-78
2024/03/18 06:17:53;;;;;;;12.27;5.77;;;0.20;99.90;;;;;;5076763;28;20189;-78
2024/03/18 06:20:43;;;;;;;13.20;6.23;;;0.20;99.90;;;;;;5076329;28;20684;-79
2024/03/18 06:23:33;;;;;;;10.23;6.13;;;0.30;99.90;;;;;;5077053;28;20364;-79
2024/03/18 06:26:20;;;;;;;10.83;6.17;;;0.30;99.90;;;;;;5076980;28;20201;-79
2024/03/18 06:29:06;;;;;;;12.23;6.27;;;0.20;99.90;;;;;;5076404;28;20214;-79
2024/03/18 06:31:53;;;;;;;14.40;6.70;;;0.30;99.90;;;;;;5076964;28;20196;-78
2024/03/18 06:34:39;;;;;;;12.60;6.47;;;0.30;99.90;;;;;;5063495;28;20217;-78
2024/03/18 06:37:27;;;;;;;11.13;6.10;;;0.30;99.90;;;;;;5076158;28;20571;-78
2024/03/18 06:40:14;;;;;;;10.57;6.37;;;0.20;99.90;;;;;;5077878;28;20238;-79
2024/03/18 06:43:00;;;;;;;9.93;6.10;;;0.40;99.90;;;;;;5076819;28;20192;-80
2024/03/18 06:45:47;;;;;;;12.60;6.23;;;0.40;99.90;;;;;;5076613;28;20202;-80
2024/03/18 06:48:34;;;;;;;12.17;6.23;;;0.50;99.90;;;;;;5076128;28;20204;-79
2024/03/18 06:51:21;;;;;;;10.67;5.90;;;0.50;99.90;;;;;;5076041;28;20646;-80
2024/03/18 06:54:07;;;;;;;10.43;5.50;;;0.60;99.90;;;;;;5090628;28;20188;-79
2024/03/18 06:56:53;;;;;;;9.20;5.43;;;0.60;99.90;;;;;;5076078;28;20200;-79
2024/03/18 06:59:40;;;;;;;11.63;5.47;;;0.50;99.90;;;;;;5063551;28;20261;-80
2024/03/18 07:02:27;;;;;;;10.43;5.27;;;0.50;99.90;;;;;;5075093;28;20677;-80
2024/03/18 07:05:13;;;;;;;11.47;5.37;;;0.50;99.90;;;;;;5076373;28;20211;-80
2024/03/18 07:07:59;;;;;;;11.33;4.87;;;0.60;99.90;;;;;;5076513;28;20203;-80
2024/03/18 07:10:46;;;;;;;11.20;5.23;;;0.60;99.90;;;;;;5076569;28;20200;-80
2024/03/18 07:13:32;;;;;;;10.30;5.50;;;0.70;99.90;;;;;;5078635;28;20190;-80
2024/03/18 07:16:18;;;;;;;9.90;5.03;;;0.70;99.90;;;;;;5080194;28;20196;-80
2024/03/18 07:19:05;;;;;;;9.63;5.03;;;0.80;99.90;;;;;;5078865;28;20692;-81
2024/03/18 07:21:51;;;;;;;9.17;5.13;;;0.80;99.90;;;;;;5080543;28;20191;-81
2024/03/18 07:24:40;;;;;;;7.83;4.70;;;0.80;99.90;;;;;;5080814;28;20197;-81
2024/03/18 07:27:27;;;;;;;12.43;5.20;;;0.70;99.90;;;;;;5080288;28;20198;-82
2024/03/18 07:30:14;;;;;;;10.53;5.20;;;0.80;99.90;;;;;;5079437;28;20203;-81
2024/03/18 07:33:00;;;;;;;9.83;4.97;;;0.90;99.90;;;;;;5065954;28;20192;-81
2024/03/18 07:35:47;;;;;;;9.77;5.33;;;0.90;99.90;;;;;;5079557;28;20233;-81
2024/03/18 07:38:34;;;;;;;9.40;5.53;;;0.90;99.90;;;;;;5079819;28;20235;-81
2024/03/18 07:41:20;;;;;;;10.67;5.43;;;0.90;99.90;;;;;;5079664;28;20645;-81
2024/03/18 07:44:07;;;;;;;9.03;5.40;;;0.90;99.90;;;;;;5080452;28;20193;-81
2024/03/18 07:46:54;;;;;;;11.37;5.30;;;1.00;99.90;;;;;;5080157;28;20273;-81
2024/03/18 07:49:40;;;;;;;11.27;5.20;;;0.90;99.90;;;;;;5080118;28;20212;-80
2024/03/18 07:52:26;;;;;;;7.83;5.10;;;1.00;99.90;;;;;;5065670;28;20196;-80
2024/03/18 07:55:14;;;;;;;9.97;5.20;;;1.20;99.90;;;;;;5078873;28;20193;-80
2024/03/18 07:58:00;;;;;;;9.00;5.27;;;1.30;99.90;;;;;;5077578;28;20189;-80
2024/03/18 08:00:47;;;;;;;10.13;4.90;;;1.30;99.90;;;;;;5078741;28;20191;-80
2024/03/18 08:03:33;;;;;;;12.63;5.33;;;1.20;99.90;;;;;;5079180;28;20201;-80
2024/03/18 08:06:20;;;;;;;9.60;5.17;;;1.20;99.90;;;;;;5064621;28;20195;-80
2024/03/18 08:09:06;;;;;;;11.10;5.40;;;1.30;99.90;;;;;;5079090;28;20190;-80
2024/03/18 08:11:53;;;;;;;11.73;5.07;;;1.20;99.90;;;;;;5065325;28;20205;-80
2024/03/18 08:14:42;;;;;;;10.73;5.67;;;1.30;99.90;;;;;;5079687;28;20565;-80
2024/03/18 08:17:28;;;;;;;12.33;5.30;;;1.30;99.90;;;;;;5091881;28;20598;-79
2024/03/18 08:20:14;;;;;;;12.70;5.50;;;1.30;99.90;;;;;;5078305;28;20228;-80
2024/03/18 08:23:01;;;;;;;11.30;5.40;;;1.30;99.90;;;;;;5078822;28;20201;-80
2024/03/18 08:25:47;;;;;;;8.67;4.93;;;1.40;99.90;;;;;;5064510;28;20192;-80
2024/03/18 08:28:34;;;;;;;10.20;5.03;;;1.40;99.90;;;;;;5078322;28;20194;-80
2024/03/18 08:31:20;;;;;;;10.70;4.97;;;1.40;99.90;;;;;;5079398;28;20193;-79
2024/03/18 08:34:07;;;;;;;9.27;4.90;;;1.40;99.90;;;;;;5055068;28;20216;-79
2024/03/18 08:36:53;;;;;;;8.57;4.60;;;1.30;99.90;;;;;;5078758;28;20748;-80
2024/03/18 08:39:40;;;;;;;10.77;5.33;;;1.40;99.90;;;;;;5078167;28;20738;-80
2024/03/18 08:42:26;;;;;;;10.97;5.03;;;1.50;99.90;;;;;;5079071;28;20189;-78
2024/03/18 08:45:12;;;;;;;8.87;4.80;;;1.70;99.90;;;;;;5065290;28;20186;-79
2024/03/18 08:47:58;;;;;;;8.40;4.80;;;1.60;99.90;;;;;;5078488;28;20190;-79
2024/03/18 08:50:45;;;;;;;8.20;4.93;;;1.50;99.90;;;;;;5078931;28;20799;-79
2024/03/18 08:53:31;;;;;;;9.20;5.03;;;1.50;99.90;;;;;;5064609;28;20187;-79
2024/03/18 08:56:17;;;;;;;9.63;5.00;;;1.50;99.90;;;;;;5078451;28;20218;-79
2024/03/18 08:59:04;;;;;;;8.33;5.07;;;1.60;99.90;;;;;;5079354;28;20225;-79
2024/03/18 09:01:50;;;;;;;9.00;5.53;;;1.60;99.90;;;;;;5079348;28;20663;-79
2024/03/18 09:04:37;;;;;;;10.43;5.00;;;1.70;99.90;;;;;;5077623;28;20216;-79
2024/03/18 09:07:23;;;;;;;12.23;5.77;;;1.80;99.90;;;;;;5065437;28;20200;-80
2024/03/18 09:10:13;;;;;;;9.97;5.43;;;1.90;99.90;;;;;;5064211;28;20604;-79
2024/03/18 09:12:59;;;;;;;8.30;5.27;;;1.90;99.90;;;;;;5079169;28;20197;-80
2024/03/18 09:15:46;;;;;;;10.23;5.30;;;1.90;99.90;;;;;;5077973;28;20193;-79
2024/03/18 09:18:32;;;;;;;9.47;5.47;;;2.10;99.90;;;;;;5079152;28;20209;-79
2024/03/18 09:21:19;;;;;;;10.90;5.40;;;2.30;99.90;;;;;;5077171;28;20182;-80
2024/03/18 09:24:05;;;;;;;7.83;5.03;;;2.30;99.90;;;;;;5078464;28;20216;-80
2024/03/18 09:26:51;;;;;;;8.70;4.60;;;2.60;99.90;;;;;;5077813;28;20642;-79
2024/03/18 09:29:38;;;;;;;8.60;4.80;;;2.70;99.90;;;;;;5077040;28;20187;-79
2024/03/18 09:32:25;;;;;;;10.00;4.80;;;2.70;99.90;;;;;;5077622;28;20246;-79
2024/03/18 09:35:12;;;;;;;8.93;4.70;;;2.70;99.90;;;;;;5075794;28;20216;-79
2024/03/18 09:37:58;;;;;;;6.47;4.37;;;2.70;99.90;;;;;;5078583;28;20177;-79
2024/03/18 09:40:45;;;;;;;7.20;4.83;;;2.50;99.90;;;;;;5078674;28;20199;-79
2024/03/18 09:43:35;;;;;;;6.63;4.30;;;2.60;99.90;;;;;;5076783;28;20189;-79
2024/03/18 09:46:22;;;;;;;8.83;4.53;;;2.50;99.90;;;;;;5077124;28;20196;-79
2024/03/18 09:49:27;;;;;;;7.23;4.33;;;2.40;99.90;;;;;;5064084;28;20235;-79
2024/03/18 09:52:16;;;;;;;6.77;4.00;;;2.50;99.90;;;;;;5064632;28;20657;-79
2024/03/18 09:55:22;;;;;;;7.37;4.60;;;2.50;99.90;;;;;;5077198;28;20303;-79
2024/03/18 09:58:17;;;;;;;5.80;4.10;;;2.50;99.90;;;;;;5078305;28;20196;-79
2024/03/18 10:01:04;;;;;;;7.53;4.60;;;2.60;99.90;;;;;;5076702;28;20730;-79
2024/03/18 10:03:50;;;;;;;8.67;4.80;;;2.60;99.90;;;;;;5078019;28;20571;-80
2024/03/18 10:06:39;;;;;;;10.03;4.90;;;2.70;99.90;;;;;;5078215;28;20194;-80
2024/03/18 10:09:28;;;;;;;9.53;4.93;;;2.70;99.90;;;;;;5077006;28;20669;-79
2024/03/18 10:12:16;;;;;;;9.33;5.03;;;2.70;99.90;;;;;;5089996;28;20196;-80
2024/03/18 10:15:03;;;;;;;8.93;4.90;;;2.60;99.90;;;;;;5076669;28;20194;-80
2024/03/18 10:17:54;;;;;;;8.73;5.40;;;2.50;99.90;;;;;;5077578;28;20304;-80
2024/03/18 10:20:40;;;;;;;10.73;6.13;;;2.40;99.90;;;;;;5076839;28;20204;-79
2024/03/18 10:23:27;;;;;;;13.30;6.80;;;2.20;99.90;;;;;;5063575;28;20243;-79
2024/03/18 10:26:18;;;;;;;11.93;8.00;;;2.20;99.90;;;;;;5063766;28;20214;-79
2024/03/18 10:29:04;;;;;;;12.97;7.63;;;2.10;99.90;;;;;;5077069;28;20244;-79
2024/03/18 10:31:52;;;;;;;14.77;8.27;;;2.00;99.90;;;;;;5061629;28;20202;-80
2024/03/18 10:34:42;;;;;;;14.40;9.53;;;1.90;99.90;;;;;;5075667;28;20216;-80
2024/03/18 10:37:28;;;;;;;19.17;11.30;;;1.90;99.90;;;;;;5076481;28;20250;-80
2024/03/18 10:40:29;;;;;;;18.70;11.53;;;1.90;99.90;;;;;;5076040;28;20222;-79
2024/03/18 10:43:30;;;;;;;21.50;11.53;;;1.70;99.90;;;;;;5076891;28;20545;-79
2024/03/18 10:46:16;;;;;;;21.30;12.30;;;1.70;99.90;;;;;;5075950;28;20181;-79
2024/03/18 10:49:03;;;;;;;20.17;12.60;;;1.70;99.90;;;;;;5079401;28;20213;-79
2024/03/18 10:51:49;;;;;;;23.70;12.33;;;1.70;99.90;;;;;;5079515;28;20190;-80
2024/03/18 10:54:36;;;;;;;21.80;11.73;;;1.70;99.90;;;;;;5080338;28;20193;-80
2024/03/18 10:57:23;;;;;;;22.40;11.77;;;1.70;99.90;;;;;;5066565;28;20533;-80
2024/03/18 11:00:12;;;;;;;19.20;11.27;;;1.70;99.90;;;;;;5079931;28;20209;-80
2024/03/18 11:03:00;;;;;;;18.50;11.00;;;1.70;99.90;;;;;;5079993;28;20581;-79
2024/03/18 11:05:50;;;;;;;16.67;9.80;;;1.80;99.90;;;;;;5079941;28;20217;-79
2024/03/18 11:08:40;;;;;;;16.93;9.87;;;1.70;99.90;;;;;;5080771;28;20193;-79
2024/03/18 11:11:27;;;;;;;15.83;9.93;;;1.80;99.90;;;;;;5079795;28;20198;-78
2024/03/18 11:14:24;;;;;;;14.90;9.50;;;1.80;99.90;;;;;;5066422;28;20193;-79
2024/03/18 11:17:15;;;;;;;17.40;9.23;;;1.80;99.90;;;;;;5080285;28;20203;-79
2024/03/18 11:20:02;;;;;;;16.87;8.63;;;1.90;99.90;;;;;;5080591;28;20221;-80
2024/03/18 11:22:57;;;;;;;16.03;8.53;;;2.00;99.90;;;;;;5079632;28;20255;-79
2024/03/18 11:25:43;;;;;;;15.87;9.07;;;2.10;99.90;;;;;;5079948;28;20193;-79
2024/03/18 11:28:38;;;;;;;15.47;8.87;;;2.20;99.90;;;;;;5080068;28;20193;-80
2024/03/18 11:31:24;;;;;;;13.17;8.13;;;2.20;99.90;;;;;;5081553;28;20577;-79
2024/03/18 11:34:13;;;;;;;15.33;7.77;;;2.30;99.90;;;;;;5069054;28;20681;-79
2024/03/18 11:36:59;;;;;;;11.77;7.53;;;2.30;99.90;;;;;;5079288;28;20252;-79
2024/03/18 11:39:46;;;;;;;10.80;6.40;;;2.30;99.90;;;;;;5078732;28;20595;-79
2024/03/18 11:42:32;;;;;;;9.80;6.40;;;2.40;99.90;;;;;;5080225;28;20197;-79
2024/03/18 11:45:20;;;;;;;11.07;6.80;;;2.40;99.90;;;;;;5079942;28;20193;-79
2024/03/18 11:48:08;;;;;;;10.47;6.30;;;2.50;99.90;;;;;;5065970;28;20302;-79
2024/03/18 11:50:55;;;;;;;12.00;6.90;;;2.50;99.90;;;;;;5078229;28;20249;-79
2024/03/18 11:53:41;;;;;;;14.47;6.57;;;2.40;99.90;;;;;;5065532;28;20255;-79
2024/03/18 11:56:28;;;;;;;12.57;7.07;;;2.50;99.90;;;;;;5065666;28;20590;-79
2024/03/18 11:59:15;;;;;;;11.97;7.13;;;2.60;99.90;;;;;;5078490;28;20219;-79
2024/03/18 12:02:02;;;;;;;11.73;6.63;;;2.60;99.90;;;;;;5078507;28;20627;-79
2024/03/18 12:04:49;;;;;;;13.60;7.90;;;2.70;99.90;;;;;;5091817;28;20214;-79
2024/03/18 12:07:35;;;;;;;10.60;6.50;;;2.60;99.90;;;;;;5080883;28;20185;-79
2024/03/18 12:10:23;;;;;;;10.03;5.97;;;2.60;99.90;;;;;;5079392;28;20191;-79
2024/03/18 12:13:09;;;;;;;9.70;5.87;;;2.80;99.90;;;;;;5077903;28;20565;-79
2024/03/18 12:15:56;;;;;;;12.27;6.33;;;2.70;99.90;;;;;;5079109;28;20562;-79
2024/03/18 12:18:42;;;;;;;12.77;6.53;;;2.90;99.90;;;;;;5065152;28;20229;-79
2024/03/18 12:21:37;;;;;;;10.23;6.60;;;3.10;99.90;;;;;;5078948;28;20672;-79
2024/03/18 12:30:35;;;;;;;9.30;5.93;;;3.60;99.90;;;;;;5067619;28;20714;-80
2024/03/18 12:33:21;;;;;;;9.43;5.70;;;3.70;99.90;;;;;;5078760;28;20187;-80
2024/03/18 12:36:16;;;;;;;10.50;5.93;;;3.80;99.90;;;;;;5092018;28;20592;-81
2024/03/18 12:39:08;;;;;;;9.67;5.60;;;4.20;99.90;;;;;;5079280;28;20227;-80
2024/03/18 12:42:03;;;;;;;9.63;5.70;;;4.50;99.90;;;;;;5078654;28;20252;-79
2024/03/18 12:44:49;;;;;;;8.07;5.30;;;4.90;99.90;;;;;;5078037;28;20194;-80
2024/03/18 12:47:36;;;;;;;7.60;5.00;;;6.10;99.90;;;;;;5077456;28;20195;-80
2024/03/18 12:50:22;;;;;;;9.17;5.53;;;6.30;99.90;;;;;;5064517;28;20581;-79
2024/03/18 12:53:11;;;;;;;7.13;4.97;;;6.40;99.90;;;;;;5065669;28;20202;-79
2024/03/18 12:55:57;;;;;;;5.50;3.93;;;6.30;99.90;;;;;;5078303;28;20698;-79
2024/03/18 12:58:44;;;;;;;6.10;4.50;;;6.00;99.90;;;;;;5078394;28;20220;-79
2024/03/18 13:01:30;;;;;;;6.90;4.00;;;5.60;99.90;;;;;;5078779;28;20558;-78
2024/03/18 13:04:17;;;;;;;5.77;4.33;;;5.30;99.90;;;;;;5078159;28;20213;-78
2024/03/18 13:07:03;;;;;;;5.37;3.57;;;5.00;99.90;;;;;;5077951;28;20660;-79
2024/03/18 13:09:50;;;;;;;4.07;2.83;;;5.00;99.90;;;;;;5077015;28;20281;-78
2024/03/18 13:12:37;;;;;;;5.80;3.30;;;5.00;99.90;;;;;;5078001;28;20567;-78
2024/03/18 13:15:23;;;;;;;4.10;3.23;;;5.00;99.90;;;;;;5076215;28;20187;-78
2024/03/18 13:18:10;;;;;;;5.80;3.57;;;5.30;99.90;;;;;;5077307;28;20194;-78
2024/03/18 13:20:57;;;;;;;5.40;3.43;;;5.50;99.90;;;;;;5063143;28;20203;-78
2024/03/18 13:23:43;;;;;;;4.77;3.57;;;5.50;99.90;;;;;;5078340;28;20657;-78
2024/03/18 13:26:29;;;;;;;5.67;4.00;;;5.20;99.90;;;;;;5078305;28;20292;-78
2024/03/18 13:29:15;;;;;;;5.63;3.70;;;4.60;99.90;;;;;;5077369;28;20223;-78
2024/03/18 13:32:02;;;;;;;6.70;4.17;;;4.30;99.90;;;;;;5076202;28;20219;-78
2024/03/18 13:34:50;;;;;;;5.73;4.00;;;4.50;99.90;;;;;;5077411;28;20688;-78
2024/03/18 13:37:36;;;;;;;7.90;3.80;;;4.60;99.90;;;;;;5077407;28;20192;-79
2024/03/18 13:40:23;;;;;;;5.80;4.03;;;4.50;99.90;;;;;;5063648;28;20228;-78
2024/03/18 13:43:18;;;;;;;6.80;4.33;;;4.20;99.90;;;;;;5076704;28;20719;-78
2024/03/18 13:46:05;;;;;;;7.13;4.47;;;4.20;99.90;;;;;;5077267;28;20199;-78
2024/03/18 13:48:51;;;;;;;5.50;3.60;;;4.20;99.90;;;;;;5089490;28;20640;-79
2024/03/18 13:51:37;;;;;;;6.57;3.67;;;4.00;99.90;;;;;;5077674;28;20654;-78
2024/03/18 13:54:24;;;;;;;5.53;3.10;;;4.00;99.90;;;;;;5075728;28;20207;-79
2024/03/18 13:57:14;;;;;;;4.87;2.87;;;3.80;99.90;;;;;;5063775;28;20200;-79
2024/03/18 14:00:04;;;;;;;6.17;3.40;;;3.80;99.90;;;;;;5076951;28;20211;-79
2024/03/18 14:02:51;;;;;;;5.97;3.40;;;3.80;99.90;;;;;;5076318;28;20186;-79
2024/03/18 14:05:37;;;;;;;4.30;2.80;;;3.70;99.90;;;;;;5077558;28;20440;-79
2024/03/18 14:08:23;;;;;;;4.07;2.67;;;3.90;99.90;;;;;;5076877;28;20288;-79
2024/03/18 14:11:14;;;;;;;2.77;2.33;;;3.90;99.90;;;;;;5076934;28;20543;-79
2024/03/18 14:14:00;;;;;;;3.03;2.23;;;3.90;99.90;;;;;;5076708;28;20508;-79
2024/03/18 14:16:46;;;;;;;4.43;2.43;;;3.80;99.90;;;;;;5063374;28;20560;-79
2024/03/18 14:19:33;;;;;;;3.47;2.27;;;3.60;99.90;;;;;;5076601;28;20229;-79
2024/03/18 14:22:20;;;;;;;4.13;2.73;;;3.70;99.90;;;;;;5076597;28;20194;-79
2024/03/18 14:25:19;;;;;;;4.40;2.53;;;3.70;99.90;;;;;;5076119;28;20214;-78
2024/03/18 14:28:06;;;;;;;5.03;2.43;;;3.70;99.90;;;;;;5075818;28;20196;-78
2024/03/18 14:30:53;;;;;;;4.37;2.60;;;3.80;99.90;;;;;;5076083;28;20237;-78
2024/03/18 14:33:39;;;;;;;3.43;2.40;;;3.60;99.90;;;;;;5076695;28;20199;-79
2024/03/18 14:36:26;;;;;;;3.43;2.30;;;3.70;99.90;;;;;;5075555;28;20229;-78
2024/03/18 14:39:12;;;;;;;4.27;2.77;;;3.70;99.90;;;;;;5075988;28;20217;-78
2024/03/18 14:41:59;;;;;;;5.80;2.97;;;3.80;99.90;;;;;;5074999;28;20194;-78
2024/03/18 14:44:45;;;;;;;3.60;2.60;;;3.90;99.90;;;;;;5076658;28;20191;-79
2024/03/18 14:47:31;;;;;;;4.93;2.57;;;4.00;99.90;;;;;;5076044;28;20201;-78
2024/03/18 14:50:18;;;;;;;3.90;2.73;;;4.00;99.90;;;;;;5076031;28;20215;-78
2024/03/18 14:53:05;;;;;;;5.17;2.70;;;4.00;99.90;;;;;;5075851;28;20665;-78
2024/03/18 14:55:52;;;;;;;6.40;3.03;;;4.10;99.90;;;;;;5076422;28;20198;-78